Time;durP1;ratioP1;P1;durP2;ratioP2;P2;SDS_P1;SDS_P2;PMS_P1;PMS_P2;Temp;Humidity;BMP_temperature;BMP_pressure;BME280_temperature;BME280_humidity;BME280_pressure;Samples;Min_cycle;Max_cycle;Signal;HPM_P1;HPM_P2
2022/03/18 00:02:17;;;;;;;;;;;;;;;3.91;72.20;101485.75;5032113;28;19928;-82
2022/03/18 00:04:42;;;;;;;;;;;;;;;3.91;72.17;101486.66;5032708;28;19925;-80
2022/03/18 00:07:08;;;;;;;;;;;;;;;3.92;72.36;101493.63;5035408;28;19917;-80
2022/03/18 00:09:33;;;;;;;;;;;;;;;3.93;72.36;101479.69;5053899;28;19916;-83
2022/03/18 00:11:58;;;;;;;;;;;;;;;3.97;72.36;101480.56;5052106;28;20002;-79
2022/03/18 00:14:24;;;;;;;;;;;;;;;3.95;72.35;101477.94;5035776;28;20008;-80
2022/03/18 04:35:24;;;;;;;;;;;;;;;3.69;95.04;101584.28;5042442;23;19952;-82
2022/03/18 04:37:49;;;;;;;;;;;;;;;3.56;94.64;101584.09;5023933;28;20364;-79
2022/03/18 04:40:15;;;;;;;;;;;;;;;3.68;94.09;101575.50;5023952;28;19924;-81
2022/03/18 04:42:41;;;;;;;;;;;;;;;3.57;93.74;101585.81;5020852;28;20011;-79
2022/03/18 04:45:07;;;;;;;;;;;;;;;3.52;93.61;101576.16;5024826;28;19921;-78
2022/03/18 04:47:33;;;;;;;;;;;;;;;3.44;93.02;101582.16;5024157;28;19921;-78
2022/03/18 04:49:59;;;;;;;;;;;;;;;3.42;93.19;101576.00;5022409;28;20360;-78
2022/03/18 04:52:24;;;;;;;;;;;;;;;3.36;92.88;101578.53;5023287;28;19967;-79
2022/03/18 04:54:49;;;;;;;;;;;;;;;3.46;92.55;101576.94;5024387;28;19917;-82
2022/03/18 04:57:20;;;;;;;;;;;;;;;3.44;91.81;101582.16;5024095;28;20383;-85
2022/03/18 04:59:46;;;;;;;;;;;;;;;3.38;91.33;101583.78;5023096;28;19917;-83
2022/03/18 05:02:11;;;;;;;;;;;;;;;3.21;91.33;101586.16;5006071;28;19940;-82
2022/03/18 05:04:37;;;;;;;;;;;;;;;3.30;91.37;101596.78;5023201;28;20337;-83
2022/03/18 05:07:03;;;;;;;;;;;;;;;3.27;90.89;101592.38;5004997;28;20299;-79
2022/03/18 05:09:28;;;;;;;;;;;;;;;3.19;90.77;101599.25;5023459;28;20008;-83
2022/03/18 05:11:54;;;;;;;;;;;;;;;3.20;90.25;101601.00;5006031;28;20257;-79
2022/03/18 05:14:19;;;;;;;;;;;;;;;3.35;91.06;101607.34;5023721;28;20007;-80
2022/03/18 05:16:44;;;;;;;;;;;;;;;3.31;92.15;101602.91;5005878;28;19962;-82
2022/03/18 05:19:10;;;;;;;;;;;;;;;3.33;92.21;101612.53;5022800;28;19996;-82
2022/03/18 05:21:35;;;;;;;;;;;;;;;3.28;92.10;101609.84;5004913;28;19921;-83
2022/03/18 05:24:01;;;;;;;;;;;;;;;3.26;92.24;101608.09;5023815;28;19971;-83
2022/03/18 05:26:26;;;;;;;;;;;;;;;3.20;92.35;101608.84;5023492;28;19991;-84
2022/03/18 05:28:52;;;;;;;;;;;;;;;3.24;92.39;101615.03;5023444;28;19924;-84
2022/03/18 05:31:17;;;;;;;;;;;;;;;3.27;91.97;101617.69;5023848;28;19917;-84
2022/03/18 05:33:42;;;;;;;;;;;;;;;3.23;91.55;101613.28;5015966;28;19943;-83
2022/03/18 05:36:07;;;;;;;;;;;;;;;3.22;91.13;101614.13;5023291;28;19926;-84
2022/03/18 05:38:33;;;;;;;;;;;;;;;3.14;91.13;101613.09;5023030;28;20736;-83
2022/03/18 05:40:58;;;;;;;;;;;;;;;3.19;90.62;101609.72;5023797;28;19944;-84
2022/03/18 05:43:23;;;;;;;;;;;;;;;3.12;90.29;101620.94;5005209;28;19929;-83
2022/03/18 05:45:48;;;;;;;;;;;;;;;3.05;90.25;101630.44;5023607;28;19921;-83
2022/03/18 08:47:02;;;;;;;;;;;;;;;2.60;79.65;101762.25;5008102;28;19988;-82
2022/03/18 08:49:30;;;;;;;;;;;;;;;2.61;79.23;101765.72;5006426;28;20205;-80
2022/03/18 08:51:57;;;;;;;;;;;;;;;2.64;79.39;101777.13;5024362;28;19921;-80
2022/03/18 08:54:22;;;;;;;;;;;;;;;2.62;79.40;101773.63;5006117;28;20020;-83
2022/03/18 08:56:48;;;;;;;;;;;;;;;2.60;79.13;101771.81;5024361;28;20016;-81
2022/03/18 08:59:13;;;;;;;;;;;;;;;2.62;79.39;101768.38;5023958;28;19918;-83
2022/03/18 09:01:39;;;;;;;;;;;;;;;2.63;79.48;101767.53;5023116;28;19918;-83
2022/03/18 09:04:04;;;;;;;;;;;;;;;2.67;79.25;101771.09;5024711;28;19999;-80
2022/03/18 09:06:29;;;;;;;;;;;;;;;2.64;79.05;101769.28;5006229;28;20292;-84
2022/03/18 09:08:58;;;;;;;;;;;;;;;2.67;79.04;101777.22;5024347;28;19921;-84
2022/03/18 09:11:23;;;;;;;;;;;;;;;2.69;79.01;101780.72;5023705;28;19967;-82
2022/03/18 09:13:48;;;;;;;;;;;;;;;2.67;78.80;101771.97;5023571;28;19968;-83
2022/03/18 09:16:14;;;;;;;;;;;;;;;2.66;78.77;101772.81;5004043;28;19917;-82
2022/03/18 09:18:39;;;;;;;;;;;;;;;2.65;78.65;101778.00;5006335;28;19961;-84
2022/03/18 09:21:06;;;;;;;;;;;;;;;2.72;79.01;101765.09;4999094;28;19968;-80
2022/03/18 09:23:31;;;;;;;;;;;;;;;2.74;79.18;101767.75;5005745;28;20337;-81
2022/03/18 09:25:57;;;;;;;;;;;;;;;2.69;78.93;101765.03;5013905;28;19976;-80
2022/03/18 09:28:22;;;;;;;;;;;;;;;2.70;78.83;101774.66;5022759;28;19940;-83
2022/03/18 09:30:47;;;;;;;;;;;;;;;2.75;79.14;101780.00;5021728;28;20110;-79
2022/03/18 09:33:13;;;;;;;;;;;;;;;2.78;79.29;101768.72;5023501;28;19963;-83
2022/03/18 09:35:38;;;;;;;;;;;;;;;2.78;79.38;101766.97;5005394;28;19925;-82
2022/03/18 09:38:03;;;;;;;;;;;;;;;2.77;79.31;101765.19;5022890;28;20348;-83
2022/03/18 09:40:29;;;;;;;;;;;;;;;2.80;79.10;101767.00;5005819;28;20063;-81
2022/03/18 09:42:54;;;;;;;;;;;;;;;2.80;78.87;101753.91;5005512;28;19917;-78
2022/03/18 09:45:24;;;;;;;;;;;;;;;2.76;78.63;101755.59;5012291;28;20385;-82
2022/03/18 09:47:50;;;;;;;;;;;;;;;2.80;78.83;101756.53;5004722;28;20837;-79
2022/03/18 09:50:15;;;;;;;;;;;;;;;2.81;78.65;101755.66;5023119;28;19968;-80
2022/03/18 09:52:42;;;;;;;;;;;;;;;4.06;81.33;101752.66;5023192;28;19961;-81
2022/03/18 09:55:07;;;;;;;;;;;;;;;5.04;80.31;101742.53;5004461;28;19983;-80
2022/03/18 09:57:32;;;;;;;;;;;;;;;3.98;80.12;101752.53;5005545;28;20014;-79
2022/03/18 09:59:58;;;;;;;;;;;;;;;3.58;80.54;101754.50;5003599;28;19914;-80
2022/03/18 10:02:30;;;;;;;;;;;;;;;3.47;80.52;101756.06;5013465;28;19917;-84
2022/03/18 10:05:08;;;;;;;;;;;;;;;3.43;80.24;101757.72;5004849;28;19995;-80
2022/03/18 10:07:33;;;;;;;;;;;;;;;3.33;79.64;101750.56;5021221;28;19921;-83
2022/03/18 10:10:08;;;;;;;;;;;;;;;3.30;79.29;101747.88;5005320;28;20275;-83
2022/03/18 10:12:38;;;;;;;;;;;;;;;3.26;78.54;101749.56;5022322;28;19921;-83
2022/03/18 10:15:14;;;;;;;;;;;;;;;3.24;78.22;101748.66;5021509;28;20288;-83
2022/03/18 10:17:42;;;;;;;;;;;;;;;3.21;77.76;101753.84;5021626;28;19917;-82
2022/03/18 10:20:22;;;;;;;;;;;;;;;3.23;77.96;101746.88;5022908;28;19928;-83
2022/03/18 10:22:47;;;;;;;;;;;;;;;3.24;78.05;101746.03;5004955;28;19929;-83
2022/03/18 10:25:32;;;;;;;;;;;;;;;3.18;77.58;101740.69;5022626;28;19924;-79
2022/03/18 10:27:57;;;;;;;;;;;;;;;3.22;77.08;101745.09;5004863;28;19943;-78
2022/03/18 10:30:22;;;;;;;;;;;;;;;3.22;76.87;101750.34;5003778;28;20387;-82
2022/03/18 10:32:49;;;;;;;;;;;;;;;3.22;76.98;101742.50;5022371;28;19921;-78
2022/03/18 10:38:12;;;;;;;;;;;;;;;3.27;76.85;101738.22;5022382;28;20275;-83
2022/03/18 10:40:37;;;;;;;;;;;;;;;3.21;76.30;101735.50;5022544;28;19917;-83
2022/03/18 10:43:06;;;;;;;;;;;;;;;3.23;76.63;101741.66;5004901;28;19960;-79
2022/03/18 10:45:31;;;;;;;;;;;;;;;3.23;76.47;101742.53;5020741;28;19922;-83
2022/03/18 10:48:15;;;;;;;;;;;;;;;3.25;76.41;101734.69;5003555;28;19932;-80
2022/03/18 10:50:41;;;;;;;;;;;;;;;3.22;76.05;101732.00;5004666;28;19947;-82
2022/03/18 10:53:10;;;;;;;;;;;;;;;3.27;76.12;101738.22;5004413;28;19917;-83
2022/03/18 10:55:36;;;;;;;;;;;;;;;3.25;76.21;101738.19;5004336;28;19922;-82
2022/03/18 10:58:05;;;;;;;;;;;;;;;3.26;76.22;101732.09;5003294;28;19914;-83
2022/03/18 11:00:31;;;;;;;;;;;;;;;3.32;76.37;101748.78;5021102;28;20402;-81
2022/03/18 11:02:58;;;;;;;;;;;;;;;3.37;76.70;101752.38;5022200;28;19919;-79
2022/03/18 11:05:24;;;;;;;;;;;;;;;3.37;76.62;101737.53;5003218;28;19921;-84
2022/03/18 11:07:51;;;;;;;;;;;;;;;3.38;76.50;101744.56;5022033;28;19971;-79
2022/03/18 11:13:03;;;;;;;;;;;;;;;3.39;76.50;101743.69;5022318;28;19987;-80
2022/03/18 11:15:29;;;;;;;;;;;;;;;3.42;76.48;101756.84;5020709;28;20364;-78
2022/03/18 11:17:56;;;;;;;;;;;;;;;3.44;76.69;101747.25;5021687;28;19929;-81
2022/03/18 11:20:24;;;;;;;;;;;;;;;3.41;76.46;101752.44;5021521;28;19917;-81
2022/03/18 11:22:49;;;;;;;;;;;;;;;3.41;76.33;101749.81;5021901;28;20372;-81
2022/03/18 11:25:15;;;;;;;;;;;;;;;3.48;76.68;101763.03;5021567;28;19971;-81
2022/03/18 11:27:44;;;;;;;;;;;;;;;3.47;76.79;101756.06;5021618;28;19917;-82
2022/03/18 11:30:19;;;;;;;;;;;;;;;3.48;76.77;101752.56;5020056;28;19928;-80
2022/03/18 11:32:44;;;;;;;;;;;;;;;3.55;76.99;101757.94;5020427;28;19914;-80
2022/03/18 11:35:10;;;;;;;;;;;;;;;3.51;76.69;101750.00;5021473;28;19921;-80
2022/03/18 11:37:35;;;;;;;;;;;;;;;3.50;76.36;101746.50;5021993;28;20463;-81
2022/03/18 11:40:23;;;;;;;;;;;;;;;3.53;76.45;101741.31;5021534;28;19917;-79
2022/03/18 11:42:49;;;;;;;;;;;;;;;3.56;76.17;101740.50;4995774;28;19963;-83
2022/03/18 11:45:43;;;;;;;;;;;;;;;3.56;76.16;101748.34;5002780;28;19964;-82
2022/03/18 11:48:28;;;;;;;;;;;;;;;3.59;76.49;101738.81;5008527;28;20389;-82
2022/03/18 11:50:55;;;;;;;;;;;;;;;3.56;76.02;101736.13;5021662;28;20280;-83
2022/03/18 11:53:44;;;;;;;;;;;;;;;3.57;75.89;101730.00;5013096;28;19913;-79
2022/03/18 11:56:10;;;;;;;;;;;;;;;3.63;75.89;101737.09;5019538;28;20008;-79
2022/03/18 11:58:36;;;;;;;;;;;;;;;3.61;75.88;101730.97;5003061;28;20312;-78
2022/03/18 12:01:01;;;;;;;;;;;;;;;3.59;75.53;101732.66;5013924;28;19917;-78
2022/03/18 12:03:30;;;;;;;;;;;;;;;3.63;75.45;101734.47;5006418;28;19953;-84
2022/03/18 12:06:00;;;;;;;;;;;;;;;3.67;75.76;101728.44;5007562;28;19939;-79
2022/03/18 12:08:43;;;;;;;;;;;;;;;3.65;75.67;101730.13;5025021;28;20023;-78
2022/03/18 12:11:26;;;;;;;;;;;;;;;3.72;76.47;101737.25;5007775;28;20057;-79
2022/03/18 12:13:51;;;;;;;;;;;;;;;3.72;76.25;101739.88;5020394;28;19917;-78
2022/03/18 12:16:20;;;;;;;;;;;;;;;3.76;76.46;101736.44;5006123;28;19940;-81
2022/03/18 12:18:46;;;;;;;;;;;;;;;3.78;76.11;101731.22;5020307;28;19913;-81
2022/03/18 12:21:12;;;;;;;;;;;;;;;3.78;75.98;101728.59;5024726;28;19924;-79
2022/03/18 12:23:37;;;;;;;;;;;;;;;3.80;76.10;101724.28;5007728;28;19997;-79
2022/03/18 12:26:06;;;;;;;;;;;;;;;3.75;75.79;101734.69;5007275;28;19921;-79
2022/03/18 12:28:44;;;;;;;;;;;;;;;3.80;75.82;101729.53;5006195;28;20314;-80
2022/03/18 12:31:13;;;;;;;;;;;;;;;3.79;75.49;101728.63;5022214;28;19948;-82
2022/03/18 12:33:38;;;;;;;;;;;;;;;3.76;75.06;101723.31;5024940;28;19924;-82
2022/03/18 12:36:04;;;;;;;;;;;;;;;3.81;75.41;101726.94;5024816;28;19921;-80
2022/03/18 12:38:31;;;;;;;;;;;;;;;3.79;74.97;101718.13;5024313;28;19923;-79
2022/03/18 12:40:58;;;;;;;;;;;;;;;3.79;74.70;101723.38;5024339;28;19922;-81
2022/03/18 12:43:25;;;;;;;;;;;;;;;3.80;74.69;101709.41;5024312;28;20024;-79
2022/03/18 12:45:51;;;;;;;;;;;;;;;3.84;74.49;101709.47;5022053;28;19917;-79
2022/03/18 12:48:20;;;;;;;;;;;;;;;3.85;74.68;101703.38;5006446;28;19996;-83
2022/03/18 12:50:49;;;;;;;;;;;;;;;3.94;75.17;101714.88;5006621;28;19921;-79
2022/03/18 12:53:16;;;;;;;;;;;;;;;4.13;76.92;101710.78;5024429;28;19920;-78
2022/03/18 12:55:43;;;;;;;;;;;;;;;4.24;78.84;101704.81;5023815;28;19921;-80
2022/03/18 12:58:10;;;;;;;;;;;;;;;4.29;80.72;101711.00;5006446;28;19917;-78
2022/03/18 13:00:39;;;;;;;;;;;;;;;4.32;82.03;101713.66;5022945;28;20380;-79
2022/03/18 13:03:06;;;;;;;;;;;;;;;4.29;83.22;101704.00;5023542;28;19913;-80
2022/03/18 13:05:31;;;;;;;;;;;;;;;4.16;84.08;101707.31;5022811;28;19924;-79
2022/03/18 13:07:58;;;;;;;;;;;;;;;4.07;85.14;101705.47;5014444;28;19921;-82
2022/03/18 13:10:23;;;;;;;;;;;;;;;4.03;86.28;101708.00;5024243;28;19921;-78
2022/03/18 13:12:48;;;;;;;;;;;;;;;4.01;87.05;101707.97;5023226;28;20275;-79
2022/03/18 13:15:18;;;;;;;;;;;;;;;3.94;87.85;101706.13;5022264;28;19921;-80
2022/03/18 13:17:48;;;;;;;;;;;;;;;3.87;88.65;101702.53;5006546;28;19917;-78
2022/03/18 13:20:22;;;;;;;;;;;;;;;3.91;89.31;101690.31;5022739;28;19924;-79
2022/03/18 13:22:47;;;;;;;;;;;;;;;3.89;91.05;101699.94;5022092;28;19932;-79
2022/03/18 13:25:12;;;;;;;;;;;;;;;4.10;94.18;101691.47;5024081;28;19917;-82
2022/03/18 13:27:38;;;;;;;;;;;;;;;4.31;97.32;101698.78;5023723;28;19923;-79
2022/03/18 13:32:50;;;;;;;;;;;;;;;4.62;100.00;101704.41;5023926;28;19928;-80
2022/03/18 13:35:16;;;;;;;;;;;;;;;4.69;100.00;101703.63;5000751;28;19931;-80
2022/03/18 13:37:41;;;;;;;;;;;;;;;4.85;100.00;101704.69;5005527;28;20271;-78
2022/03/18 13:40:11;;;;;;;;;;;;;;;4.95;100.00;101697.81;5023777;28;19921;-79
2022/03/18 13:42:36;;;;;;;;;;;;;;;4.97;100.00;101693.44;5005287;28;20453;-79
2022/03/18 13:45:03;;;;;;;;;;;;;;;4.97;100.00;101702.19;5021809;28;20009;-78
2022/03/18 13:47:28;;;;;;;;;;;;;;;5.04;100.00;101705.75;5023233;28;19967;-79
2022/03/18 13:49:58;;;;;;;;;;;;;;;5.08;100.00;101702.31;5023218;28;19917;-82
2022/03/18 13:52:31;;;;;;;;;;;;;;;5.06;100.00;101694.41;5023230;28;19917;-82
2022/03/18 13:54:56;;;;;;;;;;;;;;;5.06;100.00;101697.03;5004340;28;20023;-82
2022/03/18 13:57:23;;;;;;;;;;;;;;;5.13;100.00;101702.38;5022957;28;20016;-82
2022/03/18 13:59:54;;;;;;;;;;;;;;;5.16;100.00;101692.75;5003957;28;19922;-81
2022/03/18 14:02:21;;;;;;;;;;;;;;;5.16;100.00;101689.25;5021267;28;19968;-81
2022/03/18 14:04:47;;;;;;;;;;;;;;;5.19;100.00;101690.16;5020514;28;19996;-83
2022/03/18 14:07:14;;;;;;;;;;;;;;;5.20;100.00;101686.69;5022559;28;20365;-82
2022/03/18 14:09:58;;;;;;;;;;;;;;;5.21;100.00;101701.56;5022646;28;19926;-81
2022/03/18 14:12:24;;;;;;;;;;;;;;;5.26;100.00;101715.66;5022707;28;19933;-82
2022/03/18 14:14:51;;;;;;;;;;;;;;;5.28;100.00;101694.59;5003631;28;19944;-79
2022/03/18 14:17:17;;;;;;;;;;;;;;;5.31;100.00;101699.03;5003756;28;20011;-80
2022/03/18 14:19:50;;;;;;;;;;;;;;;5.35;100.00;101703.47;5022562;28;19921;-80
2022/03/18 14:22:35;;;;;;;;;;;;;;;5.38;100.00;101685.09;5004585;28;19921;-79
2022/03/18 14:25:13;;;;;;;;;;;;;;;5.37;100.00;101670.16;5004803;28;19921;-81
2022/03/18 14:27:39;;;;;;;;;;;;;;;5.35;100.00;101683.28;5022658;28;19951;-80
2022/03/18 14:30:08;;;;;;;;;;;;;;;4.41;100.00;101681.41;5011654;28;19917;-79
2022/03/18 14:32:33;;;;;;;;;;;;;;;4.04;100.00;101686.13;5004686;28;20368;-80
2022/03/18 14:34:58;;;;;;;;;;;;;;;3.92;100.00;101676.38;5004546;28;19925;-81
2022/03/18 14:37:30;;;;;;;;;;;;;;;3.70;99.85;101678.69;5022272;28;20016;-80
2022/03/18 14:39:56;;;;;;;;;;;;;;;3.74;97.99;101672.59;5004761;28;20284;-80
2022/03/18 14:42:21;;;;;;;;;;;;;;;3.60;96.50;101667.13;5004551;28;19921;-80
2022/03/18 14:44:46;;;;;;;;;;;;;;;3.58;95.84;101665.38;5003106;28;19921;-80
2022/03/18 14:47:12;;;;;;;;;;;;;;;3.45;95.16;101669.53;5022049;28;19925;-79
2022/03/18 14:49:37;;;;;;;;;;;;;;;3.45;94.15;101664.28;5004697;28;19928;-80
2022/03/18 14:52:02;;;;;;;;;;;;;;;3.47;92.69;101667.81;5012641;28;19917;-79
2022/03/18 14:57:12;;;;;;;;;;;;;;;3.36;91.77;101654.53;5022784;28;20024;-80
2022/03/18 14:59:39;;;;;;;;;;;;;;;3.36;91.21;101672.00;5003187;28;20011;-82
2022/03/18 15:02:04;;;;;;;;;;;;;;;3.25;90.71;101661.31;5004764;28;19917;-82
2022/03/18 15:04:30;;;;;;;;;;;;;;;3.19;90.22;101656.88;5001622;28;19920;-81
2022/03/18 15:06:55;;;;;;;;;;;;;;;3.24;89.51;101655.22;5022208;28;19917;-79
2022/03/18 15:09:20;;;;;;;;;;;;;;;3.16;89.25;101664.69;5003870;28;19917;-81
2022/03/18 15:11:46;;;;;;;;;;;;;;;3.08;88.70;101661.94;5022038;28;19960;-79
2022/03/18 15:14:11;;;;;;;;;;;;;;;3.08;88.48;101655.81;5022808;28;19917;-80
2022/03/18 15:16:37;;;;;;;;;;;;;;;3.03;88.08;101654.81;5020512;28;19921;-79
2022/03/18 15:19:02;;;;;;;;;;;;;;;3.15;87.53;101654.19;5021608;28;20356;-79
2022/03/18 15:21:27;;;;;;;;;;;;;;;3.06;87.00;101650.53;5021815;28;19917;-80
2022/03/18 15:23:52;;;;;;;;;;;;;;;3.11;86.76;101657.59;5022118;28;19921;-79
2022/03/18 15:26:18;;;;;;;;;;;;;;;3.16;86.09;101646.34;5021774;28;20012;-79
2022/03/18 15:28:43;;;;;;;;;;;;;;;3.04;86.30;101652.22;5021431;28;19971;-80
2022/03/18 15:31:08;;;;;;;;;;;;;;;3.00;86.35;101662.63;5020463;28;20353;-82
2022/03/18 15:33:34;;;;;;;;;;;;;;;3.03;86.27;101645.25;5021875;28;19921;-80
2022/03/18 15:35:59;;;;;;;;;;;;;;;3.01;85.76;101660.03;5025155;28;19974;-80
2022/03/18 15:38:25;;;;;;;;;;;;;;;3.04;85.72;101646.13;5025439;28;19928;-80
2022/03/18 15:40:50;;;;;;;;;;;;;;;3.14;85.57;101655.91;5025533;28;19917;-80
2022/03/18 15:43:16;;;;;;;;;;;;;;;3.05;85.82;101658.38;5025699;28;19955;-80
2022/03/18 15:45:43;;;;;;;;;;;;;;;3.05;85.08;101658.38;5024015;28;19922;-79
2022/03/18 15:48:10;;;;;;;;;;;;;;;3.00;84.58;101639.97;5025353;28;19924;-79
2022/03/18 15:50:36;;;;;;;;;;;;;;;3.02;84.46;101651.34;5025523;28;20053;-81
2022/03/18 15:53:03;;;;;;;;;;;;;;;3.03;84.53;101654.81;5025136;28;20000;-79
2022/03/18 15:55:28;;;;;;;;;;;;;;;2.98;84.47;101666.97;5006551;28;19921;-78
2022/03/18 15:57:54;;;;;;;;;;;;;;;3.00;84.63;101657.38;5025731;28;19940;-81
2022/03/18 16:00:21;;;;;;;;;;;;;;;2.99;84.45;101655.66;5023998;28;19917;-79
2022/03/18 16:02:48;;;;;;;;;;;;;;;2.99;83.84;101653.91;5007315;28;19975;-81
2022/03/18 16:05:13;;;;;;;;;;;;;;;2.92;83.37;101652.03;5025081;28;19917;-82
2022/03/18 16:07:39;;;;;;;;;;;;;;;2.82;83.43;101644.84;5007086;28;20414;-81
2022/03/18 16:10:04;;;;;;;;;;;;;;;2.86;83.59;101651.91;5007070;28;20149;-81
2022/03/18 16:12:30;;;;;;;;;;;;;;;2.72;83.66;101635.94;5007027;28;19917;-82
2022/03/18 16:14:57;;;;;;;;;;;;;;;2.85;83.35;101644.91;5021223;28;19976;-79
2022/03/18 16:17:23;;;;;;;;;;;;;;;2.78;83.10;101640.44;5024974;28;19956;-81
2022/03/18 16:19:49;;;;;;;;;;;;;;;2.66;83.21;101641.94;5024605;28;19984;-80
2022/03/18 16:22:29;;;;;;;;;;;;;;;2.69;83.19;101659.44;5005489;28;20011;-81
2022/03/18 16:24:56;;;;;;;;;;;;;;;2.73;83.13;101643.81;5023381;28;19924;-79
2022/03/18 16:27:24;;;;;;;;;;;;;;;2.66;83.14;101644.53;5010257;28;19972;-82
2022/03/18 16:29:49;;;;;;;;;;;;;;;2.76;83.33;101652.59;5041701;28;20242;-80
2022/03/18 16:32:14;;;;;;;;;;;;;;;2.74;83.10;101647.31;5043415;28;20000;-82
2022/03/18 16:34:42;;;;;;;;;;;;;;;2.75;82.70;101661.31;5025164;28;19921;-78
2022/03/18 16:37:07;;;;;;;;;;;;;;;2.87;82.11;101648.44;5042837;28;19921;-79
2022/03/18 16:39:32;;;;;;;;;;;;;;;2.75;81.73;101645.59;5025998;28;19921;-79
2022/03/18 16:41:58;;;;;;;;;;;;;;;2.59;82.03;101657.50;5044082;28;19917;-79
2022/03/18 16:44:23;;;;;;;;;;;;;;;2.72;82.04;101654.28;5041491;28;19929;-80
2022/03/18 16:49:32;;;;;;;;;;;;;;;2.66;82.30;101665.50;5043848;28;20394;-78
2022/03/18 16:51:57;;;;;;;;;;;;;;;2.57;82.25;101669.66;5042393;28;19921;-78
2022/03/18 16:54:23;;;;;;;;;;;;;;;2.66;81.63;101664.63;5042542;28;19932;-80
2022/03/18 16:56:49;;;;;;;;;;;;;;;2.55;81.81;101667.00;5024234;28;20352;-78
2022/03/18 16:59:15;;;;;;;;;;;;;;;2.60;81.27;101660.16;5028941;28;19931;-78
2022/03/18 17:01:49;;;;;;;;;;;;;;;2.62;81.56;101668.91;5042208;28;20004;-78
2022/03/18 17:04:15;;;;;;;;;;;;;;;2.66;81.34;101665.50;5032972;28;19925;-81
2022/03/18 17:06:41;;;;;;;;;;;;;;;2.59;81.56;101676.72;5023675;28;20403;-80
2022/03/18 17:09:06;;;;;;;;;;;;;;;2.64;81.16;101676.81;5025028;28;19920;-81
2022/03/18 17:11:32;;;;;;;;;;;;;;;2.66;81.12;101681.19;5023918;28;19925;-80
2022/03/18 17:13:59;;;;;;;;;;;;;;;2.53;81.09;101687.03;5024809;28;19959;-81
2022/03/18 17:16:24;;;;;;;;;;;;;;;2.57;80.99;101691.50;5032420;28;19922;-81
2022/03/18 17:18:49;;;;;;;;;;;;;;;2.52;81.16;101683.56;5039205;28;19979;-80
2022/03/18 17:21:15;;;;;;;;;;;;;;;2.51;81.25;101691.38;5042128;28;20012;-80
2022/03/18 17:23:41;;;;;;;;;;;;;;;2.49;81.49;101691.34;5041669;28;20369;-81
2022/03/18 17:26:06;;;;;;;;;;;;;;;2.45;81.50;101696.47;5042624;28;19920;-82
2022/03/18 17:28:32;;;;;;;;;;;;;;;2.52;81.17;101690.50;5025278;28;19952;-82
2022/03/18 17:30:59;;;;;;;;;;;;;;;2.61;81.23;101701.16;5041284;28;20388;-81
2022/03/18 17:33:24;;;;;;;;;;;;;;;2.58;81.04;101697.63;5041998;28;20329;-82
2022/03/18 17:35:50;;;;;;;;;;;;;;;2.42;80.90;101694.66;5032899;28;19924;-82
2022/03/18 17:38:15;;;;;;;;;;;;;;;2.51;80.85;101697.47;5042717;28;19924;-82
2022/03/18 17:40:40;;;;;;;;;;;;;;;2.38;80.83;101700.72;5024323;28;20277;-80
2022/03/18 17:43:05;;;;;;;;;;;;;;;2.45;80.95;101706.94;5043400;28;19924;-80
2022/03/18 17:45:32;;;;;;;;;;;;;;;2.48;80.58;101710.50;5039570;28;19944;-82
2022/03/18 17:47:57;;;;;;;;;;;;;;;2.40;80.62;101714.69;5024931;28;20292;-81
2022/03/18 17:50:23;;;;;;;;;;;;;;;2.50;80.38;101721.00;5039685;28;19921;-81
2022/03/18 17:52:48;;;;;;;;;;;;;;;2.54;79.81;101722.84;5042810;28;19970;-79
2022/03/18 17:55:13;;;;;;;;;;;;;;;2.48;79.47;101722.72;5021496;28;19925;-81
2022/03/18 17:57:39;;;;;;;;;;;;;;;2.41;79.61;101726.03;5016961;28;19948;-79
2022/03/18 18:00:04;;;;;;;;;;;;;;;2.55;79.33;101735.06;5041303;28;19924;-81
2022/03/18 18:02:30;;;;;;;;;;;;;;;2.44;79.41;101726.09;5024610;28;20003;-79
2022/03/18 18:04:55;;;;;;;;;;;;;;;2.42;79.35;101727.81;5021528;28;19925;-81
2022/03/18 18:07:21;;;;;;;;;;;;;;;2.41;79.23;101736.50;5039919;28;19928;-81
2022/03/18 18:09:46;;;;;;;;;;;;;;;2.41;79.11;101737.41;5022806;28;20462;-81
2022/03/18 18:12:14;;;;;;;;;;;;;;;2.41;79.15;101734.78;5031196;28;19964;-81
2022/03/18 18:14:39;;;;;;;;;;;;;;;2.38;79.15;101729.50;5019017;28;19956;-79
2022/03/18 18:17:04;;;;;;;;;;;;;;;2.36;79.21;101742.53;5024643;28;19963;-80
2022/03/18 18:22:14;;;;;;;;;;;;;;;2.38;78.94;101741.66;5041985;28;20275;-80
2022/03/18 18:24:41;;;;;;;;;;;;;;;2.36;79.12;101741.63;5039842;28;19924;-82
2022/03/18 18:27:07;;;;;;;;;;;;;;;2.40;79.11;101745.22;5029789;28;19951;-79
2022/03/18 18:29:34;;;;;;;;;;;;;;;2.35;78.94;101743.38;5029920;28;19940;-81
2022/03/18 18:32:00;;;;;;;;;;;;;;;2.37;79.06;101740.78;5022587;28;20379;-80
2022/03/18 18:34:25;;;;;;;;;;;;;;;2.34;79.25;101745.94;5021856;28;19921;-80
2022/03/18 18:36:51;;;;;;;;;;;;;;;2.38;78.99;101752.13;5041274;28;20360;-81
2022/03/18 18:39:19;;;;;;;;;;;;;;;2.38;79.03;101741.66;5036824;28;19920;-81
2022/03/18 18:41:47;;;;;;;;;;;;;;;2.41;78.87;101746.97;5034573;28;19936;-80
2022/03/18 18:44:13;;;;;;;;;;;;;;;2.38;78.72;101739.94;5038923;28;19983;-79
2022/03/18 18:46:39;;;;;;;;;;;;;;;2.39;78.72;101743.44;5036404;28;19933;-80
2022/03/18 18:49:05;;;;;;;;;;;;;;;2.41;78.57;101741.72;5030603;28;19924;-82
2022/03/18 18:51:31;;;;;;;;;;;;;;;2.36;78.32;101745.16;5020633;28;19925;-81
2022/03/18 18:53:56;;;;;;;;;;;;;;;2.35;78.37;101746.00;5030526;28;19947;-84
2022/03/18 18:56:21;;;;;;;;;;;;;;;2.34;78.33;101752.06;5030639;28;19925;-82
2022/03/18 18:58:47;;;;;;;;;;;;;;;2.35;78.70;101747.72;5030319;28;19932;-82
2022/03/18 19:01:12;;;;;;;;;;;;;;;2.39;78.53;101752.16;5029578;28;19921;-81
2022/03/18 19:03:38;;;;;;;;;;;;;;;2.40;78.31;101745.22;5021194;28;20390;-82
2022/03/18 19:06:03;;;;;;;;;;;;;;;2.34;78.15;101752.06;5041498;28;19990;-80
2022/03/18 19:08:29;;;;;;;;;;;;;;;2.42;78.11;101756.59;5039287;28;19927;-81
2022/03/18 19:10:54;;;;;;;;;;;;;;;2.45;77.73;101754.91;5020906;28;19929;-81
2022/03/18 19:13:20;;;;;;;;;;;;;;;2.36;77.54;101750.38;5041357;28;19946;-81
2022/03/18 19:15:46;;;;;;;;;;;;;;;2.40;77.77;101753.06;5034686;28;20394;-81
2022/03/18 19:18:13;;;;;;;;;;;;;;;2.48;77.45;101757.59;5018440;28;19979;-81
2022/03/18 19:20:38;;;;;;;;;;;;;;;2.35;77.22;101748.59;5030552;28;20020;-82
2022/03/18 19:23:05;;;;;;;;;;;;;;;2.35;77.17;101756.44;5026007;28;20017;-81
2022/03/18 19:25:31;;;;;;;;;;;;;;;2.43;77.28;101746.16;5039855;28;20361;-81
2022/03/18 19:27:56;;;;;;;;;;;;;;;2.43;77.36;101747.91;5038866;28;20000;-81
2022/03/18 19:30:21;;;;;;;;;;;;;;;2.39;77.06;101744.31;5038821;28;19933;-80
2022/03/18 19:32:46;;;;;;;;;;;;;;;2.51;77.16;101754.19;5030087;28;19941;-80
2022/03/18 19:35:16;;;;;;;;;;;;;;;2.48;76.98;101756.72;5021866;28;19921;-81
2022/03/18 19:37:42;;;;;;;;;;;;;;;2.42;76.83;101753.97;5039176;28;19925;-81
2022/03/18 19:40:09;;;;;;;;;;;;;;;2.47;76.88;101762.81;5038030;28;20276;-83
2022/03/18 19:42:34;;;;;;;;;;;;;;;2.47;76.98;101768.03;5011246;28;19925;-81
2022/03/18 19:45:00;;;;;;;;;;;;;;;2.47;76.71;101763.72;5038445;28;19920;-82
2022/03/18 19:47:25;;;;;;;;;;;;;;;2.49;76.80;101774.19;5037665;28;20001;-81
2022/03/18 19:49:51;;;;;;;;;;;;;;;2.49;76.67;101766.31;5039342;28;19928;-82
2022/03/18 19:52:17;;;;;;;;;;;;;;;2.49;76.59;101768.94;5021675;28;19948;-82
2022/03/18 19:54:43;;;;;;;;;;;;;;;2.49;76.49;101768.94;5037775;28;19928;-80
2022/03/18 20:02:36;;;;;;;;;;;;;;;2.52;75.64;101777.78;5039544;28;19932;-82
2022/03/18 20:05:02;;;;;;;;;;;;;;;2.52;75.64;101777.78;5039672;28;19920;-82
2022/03/18 20:07:27;;;;;;;;;;;;;;;2.55;75.68;101774.31;5037411;28;19929;-82
2022/03/18 20:09:52;;;;;;;;;;;;;;;2.54;75.57;101781.28;5034787;28;19921;-81
2022/03/18 20:12:18;;;;;;;;;;;;;;;2.50;75.48;101773.34;5038765;28;19927;-82
2022/03/18 20:14:45;;;;;;;;;;;;;;;2.54;75.32;101780.44;5037446;28;20019;-79
2022/03/18 20:17:14;;;;;;;;;;;;;;;2.52;75.10;101782.09;5021944;28;19927;-79
2022/03/18 20:19:40;;;;;;;;;;;;;;;2.54;75.09;101783.03;5040559;28;19921;-79
2022/03/18 20:22:05;;;;;;;;;;;;;;;2.56;75.09;101783.06;5041366;28;20295;-83
2022/03/18 20:24:30;;;;;;;;;;;;;;;2.56;75.00;101778.72;5042310;28;19960;-81